Kermit, TX (79745)

1:25 AM CDT on August 04, 2015 (GMT -0500)
Winkler County | | Change Station
CLOSE
Current Station
Airport
Location: Wink,
Elevation: 2822 ft
Nearby Weather Stations

Elev 2822 ft 31.78 °N, 103.20 °W | Updated 32 minutes ago

Overcast
Overcast
78 °F
Feels Like 78 °F
N
8
Wind Variable Wind from SE

Today
High -- | Low -- °F
--% Chance of Precip.
Yesterday
High -- | Low -- °F
Precip. -- in
7:09 AM 8:46 PM
Waning Gibbous, 80% visible
Pressure 29.82 in
Visibility 10.0 miles
Clouds Scattered Clouds 9500 ft
Dew Point 64 °F
Humidity 62%
Rainfall 0.00 in
Snow Depth Not available.
UV 0 out of 12
Pollen 5.50 out of 12
Air Quality Not available.
Flu Activity Not available.
METAR KINK 040553Z AUTO 14007KT 10SM SCT095 26/18 A2997 RMK AO2 SLP097 60002 T02560178 10344 20228 403780228 58001

More Conditions Fewer Conditions

Pressure 29.82 in
Visibility 10.0 miles
Clouds Scattered Clouds 9500 ft
Dew Point 64 °F
Humidity 62%
Rainfall 0.00 in
Snow Depth Not available.
UV 0 out of 12
Pollen 5.50 out of 12
Air Quality Not available.
Flu Activity Not available.
METAR KINK 040553Z AUTO 14007KT 10SM SCT095 26/18 A2997 RMK AO2 SLP097 60002 T02560178 10344 20228 403780228 58001

More Conditions Fewer Conditions

10-Day Weather Forecast

×

Almanac

Astronomy

Aug. 04, 2015 Rise Set
Actual Time
Civil Twilight
Nautical Twilight
Astronomical Twilight
Moon
Length of Visible Light
Length of Day
Tomorrow will be .
, % of the Moon is Illuminated

Today's Extremes

State Highs State Lows

Community

WunderPhotos

Upload Photos

1,843,870 photos uploaded!

WunderBlogs® & News

Nearby

Air Quality

  Air Quality AQ Index Pollutant
Not available.

Snow Depth

Station Depth Elevation

Earthquake Activity

City Distance Mag. Time & Date
Minimum magnitude displayed is 2.5.

Coastal Water Temperatures

Place Temperature

Stations

Nearby Weather Stations

Station Location Temp. Windchill Dew Point Humidity Wind Precip. Elev Updated Type